Prospect Creek, Prospect Cree, AK

4:29 AM AKDT on July 31, 2015 (GMT -0800)
Bettles | | Change Station
CLOSE
Current Station
Airport
Location: Bettles,
Elevation: 643 ft
Nearby Weather Stations

Elev 643 ft 66.91 °N, 151.53 °W | Updated 36 minutes ago

Smoke
Smoke
47 °F
Feels Like 47 °F
N
6
Wind Variable Wind from SE

Today
High -- | Low -- °F
--% Chance of Precip.
Yesterday
High -- | Low -- °F
Precip. -- in
4:32 AM 11:41 PM
Full, 100% visible
Pressure 30.02 in
Visibility 2.0 miles
Clouds Few 5000 ft
Dew Point 40 °F
Humidity 77%
Rainfall 0.00 in
Snow Depth Not available.
UV 0 out of 12
Pollen Not available.
Air Quality Not available.
Flu Activity Not available.
METAR PABT 311153Z 14005KT 2SM FU FEW050 08/04 A3000 RMK SLP165 T00830044 10189 20078 51008 $ VIA AUTODIAL

More Conditions Fewer Conditions

Pressure 30.02 in
Visibility 2.0 miles
Clouds Few 5000 ft
Dew Point 40 °F
Humidity 77%
Rainfall 0.00 in
Snow Depth Not available.
UV 0 out of 12
Pollen Not available.
Air Quality Not available.
Flu Activity Not available.
METAR PABT 311153Z 14005KT 2SM FU FEW050 08/04 A3000 RMK SLP165 T00830044 10189 20078 51008 $ VIA AUTODIAL

More Conditions Fewer Conditions

10-Day Weather Forecast

×

Almanac

Astronomy

Jul. 31, 2015 Rise Set
Actual Time
Civil Twilight
Nautical Twilight
Astronomical Twilight
Moon
Length of Visible Light
Length of Day
Tomorrow will be .
, % of the Moon is Illuminated

Today's Extremes

State Highs State Lows

Community

WunderPhotos

Upload Photos

1,842,646 photos uploaded!

WunderBlogs® & News

Nearby

Air Quality

  Air Quality AQ Index Pollutant
Not available.

Snow Depth

Station Depth Elevation

Earthquake Activity

City Distance Mag. Time & Date
Minimum magnitude displayed is 2.5.

Coastal Water Temperatures

Place Temperature

Stations

Nearby Weather Stations

Station Location Temp. Windchill Dew Point Humidity Wind Precip. Elev Updated Type